Time;durP1;ratioP1;P1;durP2;ratioP2;P2;SDS_P1;SDS_P2;PMS_P1;PMS_P2;Temp;Humidity;BMP_temperature;BMP_pressure;BME280_temperature;BME280_humidity;BME280_pressure;Samples;Min_cycle;Max_cycle;Signal;HPM_P1;HPM_P2
2021/07/28 00:01:55;;;;;;;11.13;6.72;;;;;;;19.43;86.67;100661.09;5044690;28;20052;-55
2021/07/28 00:04:23;;;;;;;11.38;6.63;;;;;;;19.37;86.15;100663.41;5073115;28;20431;-55
2021/07/28 00:06:50;;;;;;;12.00;4.47;;;;;;;19.26;84.30;100658.78;5054651;28;20052;-54
2021/07/28 00:09:17;;;;;;;11.07;4.47;;;;;;;18.96;82.88;100661.44;5054298;28;20049;-54
2021/07/28 00:11:47;;;;;;;8.52;4.45;;;;;;;18.98;82.77;100664.69;5058010;28;20045;-56
2021/07/28 00:14:14;;;;;;;6.70;4.45;;;;;;;18.89;83.62;100658.53;5049959;28;20049;-57
2021/07/28 00:16:42;;;;;;;8.02;4.60;;;;;;;18.92;83.95;100664.19;5040130;28;20045;-52
2021/07/28 00:19:22;;;;;;;9.18;5.05;;;;;;;19.07;83.49;100656.88;5055481;28;20048;-56
2021/07/28 00:24:36;;;;;;;8.27;4.55;;;;;;;18.82;82.91;100661.19;5053989;28;20550;-55
2021/07/28 00:27:04;;;;;;;7.57;4.20;;;;;;;18.89;83.59;100658.53;5055442;28;20045;-56
2021/07/28 00:29:31;;;;;;;7.60;4.18;;;;;;;19.01;83.60;100655.56;5072362;28;20558;-57
2021/07/28 00:31:58;;;;;;;13.57;4.40;;;;;;;19.02;82.46;100652.41;5073451;28;20056;-56
2021/07/28 00:34:26;;;;;;;11.45;4.75;;;;;;;19.07;82.39;100643.72;5072241;28;20059;-56
2021/07/28 00:36:53;;;;;;;10.23;4.75;;;;;;;19.05;82.22;100645.28;5073002;28;20055;-56
2021/07/28 00:39:20;;;;;;;11.65;5.25;;;;;;;19.12;82.02;100648.19;5073416;28;20053;-53
2021/07/28 00:41:47;;;;;;;7.90;4.25;;;;;;;19.11;82.48;100643.78;5074173;28;20052;-57
2021/07/28 00:44:15;;;;;;;9.70;4.57;;;;;;;19.00;83.03;100640.00;5073898;28;20055;-56
2021/07/28 00:46:42;;;;;;;7.47;4.22;;;;;;;19.15;82.40;100641.03;5074227;28;20054;-54
2021/07/28 00:49:09;;;;;;;8.55;4.53;;;;;;;18.88;82.64;100642.97;5054915;28;20063;-53
2021/07/28 00:51:37;;;;;;;8.85;4.45;;;;;;;18.89;82.60;100631.44;5074083;28;20044;-56
2021/07/28 00:54:04;;;;;;;8.93;4.05;;;;;;;18.82;82.27;100641.66;5056964;28;20053;-55
2021/07/28 00:56:31;;;;;;;10.98;4.70;;;;;;;18.56;84.07;100633.19;5071231;28;20052;-54
2021/07/28 00:58:58;;;;;;;10.63;4.43;;;;;;;18.67;84.30;100645.34;5093164;28;20063;-56
2021/07/28 01:01:26;;;;;;;8.07;4.50;;;;;;;18.65;83.65;100642.13;5076287;28;20056;-56
2021/07/28 01:03:54;;;;;;;9.82;4.47;;;;;;;18.49;84.48;100639.44;5093698;28;20059;-56
2021/07/28 01:06:21;;;;;;;9.23;4.00;;;;;;;18.57;84.71;100637.56;5094317;28;20055;-57
2021/07/28 01:08:49;;;;;;;9.38;4.18;;;;;;;18.61;84.11;100641.25;5079149;28;20060;-57
2021/07/28 01:11:24;;;;;;;8.77;4.22;;;;;;;18.55;84.05;100642.72;5082714;28;20131;-57
2021/07/28 01:13:51;;;;;;;16.33;4.15;;;;;;;18.64;83.78;100643.28;5082978;28;20049;-53
2021/07/28 01:16:21;;;;;;;8.60;3.75;;;;;;;18.58;83.93;100642.00;5062173;28;20053;-56
2021/07/28 01:18:49;;;;;;;8.48;3.90;;;;;;;18.48;84.01;100645.38;5061653;28;20112;-56
2021/07/28 01:21:19;;;;;;;14.10;4.35;;;;;;;18.64;83.71;100640.50;5080300;28;20495;-54
2021/07/28 01:23:47;;;;;;;8.23;4.22;;;;;;;18.88;82.96;100652.13;5080303;28;20044;-56
2021/07/28 01:26:15;;;;;;;11.35;3.95;;;;;;;18.72;83.19;100654.25;5030113;28;20048;-55
2021/07/28 01:28:42;;;;;;;9.93;4.40;;;;;;;18.53;83.87;100648.66;5042578;28;20092;-56
2021/07/28 01:31:12;;;;;;;8.35;3.88;;;;;;;18.42;84.48;100644.88;5042428;28;20377;-56
2021/07/28 01:33:41;;;;;;;9.38;4.38;;;;;;;18.47;84.50;100652.13;5059884;28;20064;-56
2021/07/28 01:36:19;;;;;;;7.13;3.83;;;;;;;18.24;84.74;100649.22;5079282;28;20044;-56
2021/07/28 01:38:47;;;;;;;7.85;4.00;;;;;;;18.43;83.87;100649.25;5061525;28;20049;-54
2021/07/28 01:41:18;;;;;;;10.35;4.22;;;;;;;18.29;84.04;100653.72;5080963;28;20060;-55
2021/07/28 01:43:45;;;;;;;10.13;4.32;;;;;;;18.30;84.56;100656.13;5080978;28;20057;-52
2021/07/28 01:46:18;;;;;;;8.98;4.03;;;;;;;18.41;83.80;100659.97;5080503;28;20047;-55
2021/07/28 01:48:45;;;;;;;8.93;3.60;;;;;;;18.28;83.66;100663.25;5079723;28;20055;-55
2021/07/28 01:51:12;;;;;;;8.90;4.10;;;;;;;18.37;83.57;100658.25;5061229;28;20049;-55
2021/07/28 01:53:43;;;;;;;9.20;4.13;;;;;;;18.45;83.81;100660.84;5025996;28;20055;-56
2021/07/28 01:56:10;;;;;;;11.85;3.85;;;;;;;18.38;83.65;100666.25;5053467;28;20055;-53
2021/07/28 01:58:40;;;;;;;9.25;3.95;;;;;;;18.64;82.75;100663.63;5100143;28;20526;-56
2021/07/28 02:01:07;;;;;;;11.23;3.58;;;;;;;18.54;82.83;100663.41;5082389;28;20052;-56
2021/07/28 02:03:34;;;;;;;18.00;4.45;;;;;;;18.55;82.59;100665.84;5100108;28;20055;-55
2021/07/28 02:06:01;;;;;;;7.95;3.85;;;;;;;18.46;81.78;100662.47;5066384;28;20064;-55
2021/07/28 02:08:29;;;;;;;9.30;3.70;;;;;;;18.36;82.16;100663.03;5059307;28;20051;-56
2021/07/28 02:10:56;;;;;;;8.82;3.83;;;;;;;18.53;81.26;100664.59;5059397;28;20691;-55
2021/07/28 02:13:23;;;;;;;11.80;4.00;;;;;;;18.57;80.08;100666.28;5025272;28;20053;-53
2021/07/28 02:15:51;;;;;;;13.38;4.20;;;;;;;18.63;79.86;100669.59;5041670;28;20060;-57
2021/07/28 02:18:18;;;;;;;9.73;4.03;;;;;;;18.61;80.24;100667.16;5058951;28;20048;-54
2021/07/28 02:20:45;;;;;;;13.13;3.40;;;;;;;18.51;80.19;100672.53;5069007;28;20052;-57
2021/07/28 02:23:12;;;;;;;9.65;3.85;;;;;;;18.51;80.14;100669.75;5066778;28;20068;-55
2021/07/28 02:25:40;;;;;;;10.57;3.90;;;;;;;18.44;79.62;100667.63;5056336;28;20044;-57
2021/07/28 02:28:07;;;;;;;11.40;4.00;;;;;;;18.29;80.43;100673.25;5043464;28;20457;-56
2021/07/28 02:30:34;;;;;;;10.27;3.67;;;;;;;18.39;80.57;100667.06;5041701;28;20064;-56
2021/07/28 02:33:01;;;;;;;7.18;3.30;;;;;;;18.43;79.96;100670.78;5076658;28;20052;-58
2021/07/28 02:35:29;;;;;;;10.88;3.55;;;;;;;18.29;80.74;100673.25;5076008;28;20490;-56
2021/07/28 02:37:56;;;;;;;7.78;3.45;;;;;;;18.44;81.05;100662.03;5057316;28;20049;-55
2021/07/28 02:40:23;;;;;;;10.75;3.70;;;;;;;18.68;80.15;100674.88;5076206;28;20048;-56
2021/07/28 02:42:50;;;;;;;8.48;3.50;;;;;;;18.81;79.64;100668.75;5074197;28;20447;-55
2021/07/28 02:45:18;;;;;;;8.02;3.58;;;;;;;18.70;79.71;100675.31;5056135;28;20041;-56
2021/07/28 02:47:45;;;;;;;7.78;3.65;;;;;;;18.61;79.91;100669.16;5055838;28;20052;-56
2021/07/28 02:50:12;;;;;;;11.05;3.40;;;;;;;18.58;80.34;100664.31;5055754;28;20049;-56
2021/07/28 02:52:40;;;;;;;10.40;3.53;;;;;;;18.50;79.90;100680.09;5056400;28;20052;-55
2021/07/28 02:55:08;;;;;;;9.90;4.00;;;;;;;18.52;79.81;100676.91;5055864;28;20061;-57
2021/07/28 02:57:36;;;;;;;7.13;3.10;;;;;;;18.52;79.76;100676.91;5072941;28;20044;-54
2021/07/28 03:00:08;;;;;;;9.32;3.67;;;;;;;18.55;79.84;100677.00;5095621;28;20044;-56
2021/07/28 03:02:36;;;;;;;13.73;3.22;;;;;;;18.48;80.21;100676.84;5093463;28;20063;-54
2021/07/28 03:05:03;;;;;;;9.30;3.17;;;;;;;18.60;79.77;100681.50;5075668;28;20048;-56
2021/07/28 03:07:33;;;;;;;10.80;3.50;;;;;;;18.72;79.44;100686.91;5075141;28;20045;-54
2021/07/28 03:10:02;;;;;;;9.77;3.58;;;;;;;18.51;79.87;100686.47;5063216;28;20048;-56
2021/07/28 03:12:30;;;;;;;8.70;3.10;;;;;;;18.57;79.58;100691.38;5021558;28;20045;-55
2021/07/28 03:14:57;;;;;;;11.85;3.70;;;;;;;18.48;78.25;100684.44;5055711;28;20447;-57
2021/07/28 03:17:24;;;;;;;11.63;3.85;;;;;;;18.39;78.68;100692.19;5055066;28;20403;-53
2021/07/28 03:19:53;;;;;;;13.80;3.10;;;;;;;18.39;77.62;100693.00;5037286;28;20057;-56
2021/07/28 03:22:20;;;;;;;17.92;3.67;;;;;;;18.22;78.04;100695.41;5037893;28;20049;-58
2021/07/28 03:24:47;;;;;;;14.23;3.67;;;;;;;18.20;78.32;100686.59;5045768;28;20096;-55
2021/07/28 03:27:14;;;;;;;11.82;3.08;;;;;;;18.09;78.68;100696.69;5074758;28;20044;-56
2021/07/28 03:29:42;;;;;;;11.73;3.80;;;;;;;18.11;79.20;100697.13;5075038;28;20543;-53
2021/07/28 03:32:09;;;;;;;8.60;3.35;;;;;;;18.11;78.58;100692.38;5075392;28;20048;-54
2021/07/28 03:34:38;;;;;;;15.82;3.58;;;;;;;18.24;78.81;100693.03;5057529;28;20045;-57
2021/07/28 03:37:05;;;;;;;9.70;3.08;;;;;;;18.11;78.87;100686.78;5075495;28;20041;-55
2021/07/28 03:39:33;;;;;;;11.68;3.28;;;;;;;18.21;78.85;100688.19;5075239;28;20047;-55
2021/07/28 03:42:00;;;;;;;13.98;3.70;;;;;;;18.24;78.51;100693.84;5075602;28;20067;-56
2021/07/28 03:44:32;;;;;;;10.77;3.15;;;;;;;18.27;78.16;100684.72;5073525;28;20055;-56
2021/07/28 03:46:59;;;;;;;11.15;3.10;;;;;;;18.14;78.17;100683.28;5074925;28;20059;-55
2021/07/28 03:49:27;;;;;;;9.73;3.25;;;;;;;18.21;77.91;100694.56;5074313;28;20064;-54
2021/07/28 03:51:54;;;;;;;11.73;3.03;;;;;;;18.21;77.84;100694.56;5074782;28;20459;-55
2021/07/28 03:54:21;;;;;;;12.68;3.10;;;;;;;18.45;76.93;100693.50;5074539;28;20048;-53
2021/07/28 03:56:48;;;;;;;8.70;3.00;;;;;;;18.26;76.71;100693.47;5067985;28;20054;-56
2021/07/28 03:59:16;;;;;;;9.77;3.30;;;;;;;18.25;76.56;100689.06;5070206;28;20044;-55
2021/07/28 04:01:43;;;;;;;11.40;3.35;;;;;;;18.34;76.34;100693.25;5074312;28;20061;-57
2021/07/28 04:04:11;;;;;;;13.98;3.85;;;;;;;17.99;76.75;100698.84;5074083;28;20053;-54
2021/07/28 04:06:38;;;;;;;13.40;3.25;;;;;;;17.89;77.73;100702.22;5074631;28;20037;-55
2021/07/28 04:09:05;;;;;;;13.15;3.08;;;;;;;18.16;77.73;100705.19;5056415;28;20049;-56
2021/07/28 04:11:32;;;;;;;11.05;3.10;;;;;;;17.98;76.57;100711.19;5074422;28;20056;-56
2021/07/28 04:14:00;;;;;;;14.70;2.95;;;;;;;18.04;77.08;100716.47;5074556;28;20052;-54
2021/07/28 04:16:27;;;;;;;10.88;3.10;;;;;;;17.88;76.57;100711.75;5071779;28;20061;-54
2021/07/28 04:18:58;;;;;;;10.00;3.63;;;;;;;17.97;77.01;100703.19;5068811;28;20071;-55
2021/07/28 04:21:25;;;;;;;14.02;3.35;;;;;;;17.87;76.98;100715.69;5074269;28;20044;-54
2021/07/28 04:23:53;;;;;;;13.70;3.13;;;;;;;17.92;76.79;100712.63;5056205;28;20060;-57
2021/07/28 04:26:20;;;;;;;12.18;3.10;;;;;;;18.11;76.10;100711.06;5074145;28;20047;-53
2021/07/28 04:28:47;;;;;;;9.45;3.15;;;;;;;18.05;75.42;100715.28;5056024;28;20044;-54
2021/07/28 04:31:15;;;;;;;10.90;3.10;;;;;;;18.04;75.11;100705.31;5055994;28;20051;-54
2021/07/28 04:33:42;;;;;;;11.10;3.40;;;;;;;18.03;75.47;100712.09;5073165;28;20522;-56
2021/07/28 04:36:09;;;;;;;9.52;2.90;;;;;;;18.15;74.97;100717.53;5074421;28;20052;-55
2021/07/28 04:38:37;;;;;;;14.18;3.28;;;;;;;18.12;74.73;100713.47;5073741;28;20040;-54
2021/07/28 04:41:07;;;;;;;10.63;3.08;;;;;;;18.00;74.43;100719.19;5057043;28;20051;-55
2021/07/28 04:43:34;;;;;;;13.25;3.65;;;;;;;17.97;74.84;100722.72;5073988;28;20053;-54
2021/07/28 04:46:02;;;;;;;12.05;2.97;;;;;;;17.78;75.36;100729.00;5056264;28;20614;-54
2021/07/28 04:48:30;;;;;;;13.70;3.50;;;;;;;17.92;75.24;100726.56;5055750;28;20044;-56
2021/07/28 04:50:58;;;;;;;14.52;3.05;;;;;;;18.03;74.64;100717.66;5055749;28;20426;-55
2021/07/28 04:53:29;;;;;;;13.48;3.17;;;;;;;18.05;74.85;100723.66;5056213;28;20048;-56
2021/07/28 04:55:57;;;;;;;14.95;3.35;;;;;;;18.11;74.38;100713.84;5061503;28;20052;-57
2021/07/28 04:58:25;;;;;;;13.20;2.95;;;;;;;18.00;73.89;100710.81;5075809;28;20052;-53
2021/07/28 05:00:52;;;;;;;14.93;3.20;;;;;;;17.92;74.48;100715.41;5083493;28;20063;-57
2021/07/28 05:03:20;;;;;;;11.63;3.15;;;;;;;17.93;74.84;100719.84;5055813;28;20495;-55
2021/07/28 05:05:47;;;;;;;10.35;3.15;;;;;;;17.90;74.85;100728.13;5067451;28;20052;-56
2021/07/28 05:08:14;;;;;;;12.35;3.55;;;;;;;17.86;75.31;100721.63;5053336;28;20590;-57
2021/07/28 05:10:42;;;;;;;14.98;3.35;;;;;;;17.95;75.71;100725.03;5053665;28;20049;-53
2021/07/28 05:13:09;;;;;;;6.88;2.95;;;;;;;17.95;74.85;100728.66;5053561;28;20044;-55
2021/07/28 05:15:36;;;;;;;10.15;3.28;;;;;;;17.80;75.60;100734.25;5053629;28;20492;-55
2021/07/28 05:18:04;;;;;;;15.23;3.42;;;;;;;17.81;76.03;100738.63;5035272;28;20048;-54
2021/07/28 05:20:31;;;;;;;10.15;2.90;;;;;;;17.90;75.83;100733.69;5056489;28;20041;-56
2021/07/28 05:22:58;;;;;;;13.65;2.97;;;;;;;17.69;76.69;100735.94;5073565;28;20055;-57
2021/07/28 05:25:28;;;;;;;11.32;3.20;;;;;;;17.84;76.87;100741.50;5039147;28;20051;-56
2021/07/28 05:27:55;;;;;;;12.53;3.30;;;;;;;17.89;76.17;100735.66;5073777;28;20049;-56
2021/07/28 05:30:23;;;;;;;14.85;3.53;;;;;;;18.00;76.18;100730.34;5072944;28;20060;-56
2021/07/28 05:32:50;;;;;;;17.08;3.30;;;;;;;18.22;75.46;100726.84;5057934;28;20435;-56
2021/07/28 05:35:17;;;;;;;15.20;3.60;;;;;;;18.39;75.32;100725.63;5061488;28;20060;-56
2021/07/28 05:37:45;;;;;;;13.18;3.17;;;;;;;18.12;75.38;100732.19;5053245;28;20049;-56
2021/07/28 05:40:13;;;;;;;10.40;3.10;;;;;;;18.09;75.45;100730.13;5052962;28;20049;-56
2021/07/28 05:42:41;;;;;;;12.32;3.35;;;;;;;18.12;75.01;100734.97;5053344;28;20053;-55
2021/07/28 05:45:08;;;;;;;18.38;2.83;;;;;;;18.16;74.69;100742.25;5053208;28;20492;-56
2021/07/28 05:47:35;;;;;;;19.30;3.63;;;;;;;18.27;74.50;100734.94;5053145;28;20057;-53
2021/07/28 05:50:03;;;;;;;9.38;3.08;;;;;;;18.29;74.17;100740.94;5035004;28;20052;-56
2021/07/28 05:52:30;;;;;;;11.73;3.08;;;;;;;18.66;73.95;100739.41;5035498;28;20048;-58
2021/07/28 05:54:57;;;;;;;12.40;3.00;;;;;;;18.36;73.03;100746.69;5063136;28;20040;-55
2021/07/28 05:57:24;;;;;;;7.22;2.78;;;;;;;18.20;73.88;100747.91;5048768;28;20049;-56
2021/07/28 05:59:52;;;;;;;18.52;3.22;;;;;;;18.21;73.97;100750.34;5056454;28;20041;-56
2021/07/28 06:02:20;;;;;;;19.85;3.05;;;;;;;18.59;72.83;100756.00;5065135;28;20471;-55
2021/07/28 06:04:47;;;;;;;13.00;2.70;;;;;;;18.82;72.79;100754.09;5075570;28;20040;-57
2021/07/28 06:07:15;;;;;;;13.70;2.92;;;;;;;18.61;73.20;100756.44;5050335;28;20056;-54
2021/07/28 06:09:42;;;;;;;10.15;2.65;;;;;;;18.63;73.34;100761.66;5060899;28;20045;-54
2021/07/28 06:12:09;;;;;;;13.07;3.50;;;;;;;18.61;73.10;100759.25;5076714;28;20052;-56
2021/07/28 06:14:37;;;;;;;11.88;3.20;;;;;;;18.68;73.44;100766.94;5068515;28;20049;-56
2021/07/28 06:17:05;;;;;;;11.10;3.15;;;;;;;18.84;77.80;100759.31;5039901;28;20416;-56
2021/07/28 06:19:32;;;;;;;12.43;3.03;;;;;;;19.17;77.90;100767.13;5040351;28;20041;-55
2021/07/28 06:22:00;;;;;;;18.27;3.47;;;;;;;19.41;76.86;100773.22;5049708;28;20056;-55
2021/07/28 06:24:27;;;;;;;16.08;3.15;;;;;;;19.70;80.85;100775.34;5057091;28;20059;-56
2021/07/28 06:26:54;;;;;;;12.25;3.17;;;;;;;19.70;78.08;100771.75;5064656;28;20049;-56
2021/07/28 06:29:25;;;;;;;9.88;3.05;;;;;;;19.58;77.30;100774.75;5075953;28;20044;-56
2021/07/28 06:31:53;;;;;;;11.13;3.25;;;;;;;19.70;72.33;100777.34;5066253;28;20057;-53
2021/07/28 06:34:20;;;;;;;8.73;2.40;;;;;;;19.84;71.97;100775.56;5075691;28;20078;-56
2021/07/28 06:36:48;;;;;;;14.35;3.00;;;;;;;19.97;71.01;100773.41;5077186;28;20052;-55
2021/07/28 06:39:15;;;;;;;12.27;2.83;;;;;;;20.03;71.75;100778.28;5041598;28;20051;-57
2021/07/28 06:41:42;;;;;;;13.02;2.50;;;;;;;20.23;71.86;100773.44;5074269;28;20049;-56
2021/07/28 06:44:09;;;;;;;14.15;3.30;;;;;;;20.27;71.12;100762.28;5074949;28;20051;-56
2021/07/28 06:46:37;;;;;;;15.50;3.40;;;;;;;20.07;69.35;100772.75;5075554;28;20051;-56
2021/07/28 06:49:04;;;;;;;13.85;3.00;;;;;;;20.06;70.72;100774.75;5079571;28;20032;-56
2021/07/28 06:51:31;;;;;;;18.88;2.85;;;;;;;20.04;68.31;100776.31;5037709;28;20090;-57
2021/07/28 06:53:59;;;;;;;9.88;3.13;;;;;;;20.28;68.32;100766.69;5038429;28;20053;-57
2021/07/28 06:56:27;;;;;;;22.65;4.25;;;;;;;20.24;67.32;100777.88;5054221;28;20056;-57
2021/07/28 06:58:54;;;;;;;14.02;2.83;;;;;;;20.02;69.01;100781.47;5077834;28;20051;-54
2021/07/28 07:01:21;;;;;;;11.52;3.42;;;;;;;19.92;67.53;100784.91;5096105;28;20079;-57
2021/07/28 07:03:49;;;;;;;13.10;3.38;;;;;;;19.92;67.66;100784.91;5076048;28;20053;-58
2021/07/28 07:06:24;;;;;;;15.80;3.50;;;;;;;20.01;67.54;100789.03;5054936;28;20057;-54
2021/07/28 07:08:52;;;;;;;16.13;3.65;;;;;;;19.83;68.22;100790.75;5038243;28;20041;-56
2021/07/28 07:11:19;;;;;;;11.85;3.17;;;;;;;19.99;68.68;100780.25;5055751;28;20060;-55
2021/07/28 07:13:46;;;;;;;13.35;3.10;;;;;;;19.98;68.00;100787.00;5055750;28;20052;-56
2021/07/28 07:16:13;;;;;;;14.90;3.65;;;;;;;19.89;68.40;100789.22;5037352;28;20534;-58
2021/07/28 07:18:41;;;;;;;17.08;3.35;;;;;;;19.93;68.57;100789.28;5037797;28;20505;-57
2021/07/28 07:21:08;;;;;;;14.30;3.83;;;;;;;20.27;68.63;100795.88;5038666;28;20052;-57
2021/07/28 07:23:35;;;;;;;12.05;3.65;;;;;;;20.33;68.81;100785.97;5038627;28;20447;-56
2021/07/28 07:26:03;;;;;;;13.07;3.65;;;;;;;20.46;67.91;100793.78;5055954;28;20056;-58
2021/07/28 07:28:30;;;;;;;10.25;3.10;;;;;;;20.41;67.15;100788.50;5055825;28;20053;-55
2021/07/28 07:30:57;;;;;;;13.93;3.80;;;;;;;20.49;67.42;100787.41;5055590;28;20045;-58
2021/07/28 07:33:38;;;;;;;14.35;3.30;;;;;;;20.49;66.83;100795.00;5054675;28;20053;-56
2021/07/28 07:36:19;;;;;;;15.35;3.63;;;;;;;20.46;66.88;100776.16;5055196;28;20120;-56
2021/07/28 07:38:46;;;;;;;18.48;2.97;;;;;;;20.28;67.33;100791.88;5071934;28;20059;-56
2021/07/28 07:41:14;;;;;;;19.33;3.47;;;;;;;20.31;68.01;100791.94;5077295;28;20059;-56
2021/07/28 07:43:41;;;;;;;15.90;3.75;;;;;;;20.37;67.86;100790.44;5095430;28;20059;-56
2021/07/28 07:46:09;;;;;;;20.02;3.80;;;;;;;20.33;67.77;100797.16;5075660;28;20538;-56
2021/07/28 07:48:36;;;;;;;12.75;3.75;;;;;;;20.44;68.10;100784.94;5078775;28;20048;-58
2021/07/28 07:51:03;;;;;;;12.60;3.90;;;;;;;20.52;67.47;100785.84;5057687;28;20045;-54
2021/07/28 07:53:31;;;;;;;10.23;3.80;;;;;;;20.81;67.03;100779.44;5058248;28;20052;-58
2021/07/28 07:55:58;;;;;;;16.27;4.05;;;;;;;21.22;63.38;100789.56;5043735;28;20048;-56
2021/07/28 07:58:26;;;;;;;14.40;4.85;;;;;;;21.23;62.61;100788.38;5068206;28;20543;-57
2021/07/28 08:00:53;;;;;;;15.07;3.85;;;;;;;21.03;61.92;100781.34;5047028;28;20057;-55
2021/07/28 08:03:21;;;;;;;11.82;3.38;;;;;;;21.16;60.54;100786.31;5065194;28;20052;-55
2021/07/28 08:05:49;;;;;;;18.90;3.63;;;;;;;21.31;60.18;100792.06;5062014;28;20377;-58
2021/07/28 08:08:17;;;;;;;18.23;3.45;;;;;;;21.23;60.69;100782.78;5070535;28;20055;-57
2021/07/28 08:10:44;;;;;;;15.38;3.38;;;;;;;21.19;60.43;100787.53;5059982;28;20048;-59
2021/07/28 08:13:11;;;;;;;11.88;3.20;;;;;;;21.16;60.35;100789.13;5068839;28;20048;-57
2021/07/28 08:15:39;;;;;;;11.52;2.92;;;;;;;21.01;60.78;100783.72;5055415;28;20053;-57
2021/07/28 08:18:06;;;;;;;12.68;2.95;;;;;;;21.04;60.84;100782.97;5045348;28;20056;-58
2021/07/28 08:20:33;;;;;;;10.52;2.70;;;;;;;20.89;60.29;100783.94;5074435;28;20053;-59
2021/07/28 08:23:01;;;;;;;9.20;2.60;;;;;;;20.90;60.44;100789.16;5055671;28;20051;-56
2021/07/28 08:25:28;;;;;;;9.68;2.83;;;;;;;20.72;60.91;100784.50;5054679;28;20045;-57
2021/07/28 08:27:55;;;;;;;16.55;2.90;;;;;;;20.83;60.07;100779.88;5070202;28;20048;-58
2021/07/28 08:30:22;;;;;;;8.43;2.60;;;;;;;20.75;59.82;100778.16;5039016;28;20045;-62
2021/07/28 08:32:50;;;;;;;11.38;2.55;;;;;;;20.84;59.52;100778.66;5070172;28;20059;-56
2021/07/28 08:35:17;;;;;;;7.85;2.20;;;;;;;20.79;58.21;100773.41;5050827;28;20060;-59
2021/07/28 08:37:44;;;;;;;9.52;2.60;;;;;;;22.04;58.89;100764.75;5054259;28;20052;-38
2021/07/28 08:40:14;;;;;;;6.03;2.10;;;;;;;23.16;54.47;100761.75;5071575;28;20400;-39
2021/07/28 08:42:45;;;;;;;6.55;2.10;;;;;;;23.46;53.71;100764.25;5062546;28;20069;-39
2021/07/28 08:45:14;;;;;;;7.47;2.35;;;;;;;23.91;53.79;100766.31;5065540;28;20060;-39
2021/07/28 08:47:43;;;;;;;7.88;2.00;;;;;;;24.13;53.25;100773.53;5062649;28;20055;-40
2021/07/28 08:50:11;;;;;;;11.35;2.45;;;;;;;23.95;52.83;100766.31;5044107;28;20041;-38
2021/07/28 08:52:40;;;;;;;10.35;2.40;;;;;;;24.14;52.50;100774.34;5061459;28;20052;-39
2021/07/28 08:55:09;;;;;;;9.80;1.85;;;;;;;24.31;52.05;100753.81;5043562;28;20056;-38
2021/07/28 08:57:36;;;;;;;12.55;2.67;;;;;;;24.30;51.64;100766.31;5076821;28;20056;-39
2021/07/28 09:00:05;;;;;;;8.13;2.10;;;;;;;24.41;51.15;100764.25;5052661;28;20646;-38
2021/07/28 09:02:32;;;;;;;13.60;2.58;;;;;;;24.45;50.49;100771.50;5052900;28;20052;-38
2021/07/28 09:05:00;;;;;;;7.63;2.33;;;;;;;24.51;50.08;100777.53;5035631;28;20063;-39
2021/07/28 09:07:28;;;;;;;12.15;2.35;;;;;;;24.47;48.87;100773.91;5052403;28;20056;-38
2021/07/28 09:09:57;;;;;;;7.18;1.90;;;;;;;24.56;49.28;100774.28;5044650;28;20045;-40
2021/07/28 09:12:35;;;;;;;7.82;1.88;;;;;;;24.55;49.33;100769.06;5047366;28;20041;-39
2021/07/28 09:15:05;;;;;;;8.30;2.05;;;;;;;24.61;48.70;100776.69;5058183;28;20064;-39
2021/07/28 09:17:37;;;;;;;11.38;2.20;;;;;;;24.63;48.87;100770.63;5040882;28;20055;-38
2021/07/28 09:20:05;;;;;;;8.40;2.10;;;;;;;24.45;49.62;100768.69;5044082;28;20056;-39
2021/07/28 09:22:39;;;;;;;11.02;2.00;;;;;;;24.39;49.06;100767.47;5084853;28;20053;-39
2021/07/28 09:25:14;;;;;;;6.75;1.95;;;;;;;24.50;49.17;100773.91;5063537;28;20455;-39
2021/07/28 09:27:52;;;;;;;14.05;2.22;;;;;;;24.57;48.43;100766.63;5068636;28;20045;-38
2021/07/28 09:30:39;;;;;;;15.77;2.13;;;;;;;24.68;48.48;100770.22;5057337;28;20053;-49
2021/07/28 09:33:10;;;;;;;14.30;2.63;;;;;;;24.75;48.69;100773.84;5064422;28;20041;-49
2021/07/28 09:35:52;;;;;;;8.10;2.17;;;;;;;24.78;47.96;100770.22;5063714;28;20055;-39
2021/07/28 09:38:45;;;;;;;8.05;2.17;;;;;;;24.73;48.86;100775.47;5076924;28;20056;-38
2021/07/28 09:41:27;;;;;;;7.80;2.08;;;;;;;24.76;48.54;100772.63;5062597;28;20561;-53
2021/07/28 09:43:55;;;;;;;8.75;2.28;;;;;;;24.76;48.24;100775.44;5059185;28;20049;-38
2021/07/28 09:46:34;;;;;;;8.13;2.00;;;;;;;24.78;48.29;100772.22;5064045;28;20060;-38
2021/07/28 09:49:12;;;;;;;5.30;1.93;;;;;;;24.81;48.57;100774.25;5060250;28;20045;-39
2021/07/28 09:51:43;;;;;;;10.30;2.28;;;;;;;24.41;49.62;100784.78;5042218;28;20037;-38
2021/07/28 09:54:12;;;;;;;7.82;2.15;;;;;;;24.55;49.53;100781.09;5061741;28;20067;-38
2021/07/28 09:56:50;;;;;;;5.53;1.70;;;;;;;24.45;48.76;100788.38;5087031;28;20059;-37
2021/07/28 09:59:18;;;;;;;7.53;2.13;;;;;;;24.53;48.81;100773.06;5057079;28;20048;-39
2021/07/28 10:01:46;;;;;;;8.02;2.05;;;;;;;24.59;48.86;100792.38;5052662;28;20055;-39
2021/07/28 10:04:18;;;;;;;10.23;2.20;;;;;;;24.60;48.86;100786.31;5076617;28;20052;-38
2021/07/28 10:06:48;;;;;;;3.30;1.77;;;;;;;24.39;47.26;100781.56;5061862;28;20060;-39
2021/07/28 10:09:20;;;;;;;6.30;2.20;;;;;;;24.48;48.61;100789.56;5054085;28;20064;-38
2021/07/28 10:11:50;;;;;;;6.70;2.05;;;;;;;24.48;49.14;100787.56;5053696;28;20049;-38
2021/07/28 10:14:19;;;;;;;7.60;2.22;;;;;;;24.31;48.09;100782.78;5075029;28;20043;-43
2021/07/28 10:16:47;;;;;;;6.45;1.73;;;;;;;24.33;48.64;100780.38;5065549;28;20061;-37
2021/07/28 10:19:15;;;;;;;5.80;2.28;;;;;;;24.30;46.29;100786.78;5064243;28;20044;-38
2021/07/28 10:21:54;;;;;;;7.18;2.35;;;;;;;24.47;47.33;100788.78;5058398;28;20052;-38
2021/07/28 10:24:21;;;;;;;7.22;2.42;;;;;;;24.49;47.53;100779.94;5072387;28;20047;-40
2021/07/28 10:26:51;;;;;;;9.63;3.03;;;;;;;24.52;47.08;100788.38;5059967;28;20048;-38
2021/07/28 10:29:22;;;;;;;7.22;4.18;;;;;;;24.56;47.28;100782.72;5044061;28;20045;-40
2021/07/28 10:31:51;;;;;;;10.23;4.35;;;;;;;24.60;47.11;100782.72;5024114;28;20053;-37
2021/07/28 10:34:35;;;;;;;8.85;4.60;;;;;;;24.68;46.90;100785.13;5055635;28;20048;-38
2021/07/28 10:37:04;;;;;;;7.68;3.97;;;;;;;24.38;47.88;100779.97;5065426;28;20052;-43
2021/07/28 10:39:41;;;;;;;7.70;3.63;;;;;;;24.56;44.59;100781.94;5051565;28;20053;-38
2021/07/28 10:42:18;;;;;;;8.50;3.17;;;;;;;24.68;46.93;100779.47;5065559;28;20040;-40
2021/07/28 10:45:03;;;;;;;8.90;3.10;;;;;;;24.82;46.77;100771.00;5042058;28;20056;-36
2021/07/28 10:47:40;;;;;;;10.00;3.33;;;;;;;24.86;46.23;100773.81;5062096;28;20052;-37
2021/07/28 10:50:20;;;;;;;9.07;2.70;;;;;;;24.85;46.83;100770.19;5075972;28;20535;-38
2021/07/28 10:52:48;;;;;;;10.32;3.35;;;;;;;24.88;46.59;100771.41;5073490;28;20045;-38
2021/07/28 10:55:18;;;;;;;6.53;2.97;;;;;;;24.91;45.96;100765.75;5074314;28;20076;-37
2021/07/28 10:57:48;;;;;;;5.43;2.80;;;;;;;24.97;46.07;100763.28;5095009;28;20072;-37
2021/07/28 11:00:52;;;;;;;4.90;2.45;;;;;;;24.81;46.44;100762.97;5087448;28;20059;-37
2021/07/28 11:03:28;;;;;;;13.93;2.70;;;;;;;24.85;46.13;100764.56;4957331;28;20050;-37
2021/07/28 11:06:13;;;;;;;9.82;2.58;;;;;;;24.89;46.18;100773.00;5040241;28;20124;-43
2021/07/28 11:08:41;;;;;;;7.03;2.45;;;;;;;24.75;46.79;100761.78;5062862;28;20079;-38
2021/07/28 11:11:08;;;;;;;5.97;2.17;;;;;;;24.73;46.88;100755.72;5082579;28;20048;-38
2021/07/28 11:13:43;;;;;;;6.15;2.25;;;;;;;24.88;46.32;100763.72;5084476;28;20045;-38
2021/07/28 11:16:10;;;;;;;7.65;2.40;;;;;;;25.02;46.22;100774.16;5084333;28;20711;-39
2021/07/28 11:18:41;;;;;;;6.55;2.10;;;;;;;25.04;46.05;100769.69;5081103;28;20067;-39
2021/07/28 11:21:11;;;;;;;4.03;2.17;;;;;;;25.00;45.64;100773.75;5083238;28;20051;-38
2021/07/28 11:23:41;;;;;;;5.18;2.30;;;;;;;24.73;45.92;100783.91;5083730;28;20545;-39
2021/07/28 11:26:30;;;;;;;4.40;2.00;;;;;;;24.71;46.97;100789.16;5065704;28;20052;-38
2021/07/28 11:29:17;;;;;;;7.35;2.38;;;;;;;24.84;46.17;100782.69;5081512;28;20052;-37
2021/07/28 11:31:47;;;;;;;7.43;2.45;;;;;;;24.89;45.86;100779.44;5083172;28;20055;-39
2021/07/28 11:34:15;;;;;;;4.93;2.08;;;;;;;24.90;45.86;100781.03;5081769;28;20059;-38